Airfield :
LOGIN :

Register | Disclaimer

   EN    FR    IT 

 










Legend :    VFR   Marginal VFR   IFR   Intensive IFR   Very Intensive IFR
Visi :
Ceiling :
>= 8 km
>= 3000ft
5 to 8 km
1000 to 3000 ft
1500m to 5 km
500 to 1000 ft
800 to 1500m
200 to 500 ft
< 800m
< 200 ft
Symbols :   Thunderstorms  Fog  Heavy snow  Heavy precipitations  Wind > 20 kt
SIGMETs :     Misc.  Thunderstorms  Icing  Turbulence  Mountain Waves  Volcanic Ashes







- Airport Elevation : 90 ft
- IATA code : NTE
- Download approach charts


LFRS - Nantes

CURRENT METAR :
  • 280030Z AUTO 02004KT 350V050 CAVOK 20/16 Q1015 TEMPO 4000 -TSRA BKN030CB

EXPIRED METARs :
  • 280000Z AUTO 04003KT 010V080 CAVOK 22/17 Q1015 TEMPO 4000 -TSRA BKN030CB
  • 272330Z AUTO 05005KT 020V080 CAVOK 23/16 Q1015 TEMPO 4000 -TSRA BKN030CB
  • 272300Z AUTO 04004KT 010V080 CAVOK 23/16 Q1015 TEMPO 4000 -TSRA BKN060CB
  • 272230Z AUTO 04004KT 010V070 CAVOK 23/16 Q1015 TEMPO 4000 -TSRA BKN060CB

TAF TAF LFRS
Valid from the 28 at 00:00 until the 29 at 06:00 UTC


272300Z 2800/2906 03004KT CAVOK
PROB30
TEMPO 2800/2809 4000 -TSRA BKN030CB
BECMG 2808/2810 16010KT
BECMG 2815/2817 22010KT
TEMPO 2822/2906 4000 -SHRA
ATIS : +33 2 40 05 12 74
No reported NOTAMs for that airfield.
1 SIGMET reported for the Brest FIR (LFRR) :
 
Embedded thunderstorms
LFRR SIGMET 5 VALID 272230/280230 LFPW
LFRR BREST FIR/UIR EMBD TS OBS WI N4630 W00130 - N4330 W00145 - N4500 W00745 - N4600 W00700 TOP FL420 MOV N 15KT NC=



MET'MAP, your aeronautical weather chart ! - Copyright ORBIFLY December 2007 - Disclaimer

ORBIFLY MET'MAP TEAM :

Programming & Development : Alexandra Zaïnal
Concept & Development : Baudouin d'Aumeries
Co-Development & Prog : Marc-Olivier Méhu
Technical & hardware support : Manuel Goepfert

Contact : metmap@orbifly.com




SOURCES & CREDITS :

   NOAA